createdAt,value
2023-04-16T00:00:36.840Z,98474.20
2023-04-16T00:03:33.715Z,98478.20
2023-04-16T00:06:14.017Z,98481.60
2023-04-16T00:08:51.642Z,98479.40
2023-04-16T00:11:28.066Z,98481.60
2023-04-16T00:14:04.995Z,98480.00
2023-04-16T00:16:41.510Z,98481.00
2023-04-16T00:19:18.096Z,98482.20
2023-04-16T00:21:54.317Z,98483.80
2023-04-16T00:24:30.729Z,98487.40
2023-04-16T00:27:07.908Z,98481.00
2023-04-16T00:29:44.391Z,98481.20
2023-04-16T00:32:20.634Z,98480.40
2023-04-16T00:34:57.240Z,98486.20
2023-04-16T00:37:33.509Z,98491.20
2023-04-16T00:40:12.362Z,98490.60
2023-04-16T00:42:48.827Z,98498.40
2023-04-16T00:45:25.313Z,98503.20
2023-04-16T00:48:04.224Z,98502.00
2023-04-16T00:50:40.901Z,98506.20
2023-04-16T00:53:18.369Z,98513.60
2023-04-16T00:55:57.206Z,98514.80
2023-04-16T00:58:35.038Z,98526.40
2023-04-16T01:01:11.558Z,98533.60
2023-04-16T01:03:52.118Z,98530.00
2023-04-16T01:06:28.420Z,98526.20
2023-04-16T01:09:04.889Z,98533.40
2023-04-16T01:11:42.801Z,98539.40
2023-04-16T01:14:19.393Z,98545.80
2023-04-16T01:16:56.154Z,98546.20
2023-04-16T01:19:36.529Z,98548.80
2023-04-16T01:22:12.922Z,98550.20
2023-04-16T01:24:49.178Z,98550.00
2023-04-16T01:27:25.518Z,98547.40
2023-04-16T01:30:01.907Z,98544.80
2023-04-16T01:32:48.065Z,98542.40
2023-04-16T01:35:24.487Z,98537.60
2023-04-16T01:38:01.015Z,98533.60
2023-04-16T01:40:37.777Z,98532.20
2023-04-16T01:43:17.841Z,98533.60
2023-04-16T01:45:58.385Z,98535.00
2023-04-16T01:48:34.773Z,98530.40
2023-04-16T01:51:11.858Z,98528.20
2023-04-16T01:53:51.132Z,98530.60
2023-04-16T01:56:27.746Z,98523.00
2023-04-16T01:59:04.051Z,98520.00
2023-04-16T02:01:45.232Z,98515.40
2023-04-16T02:04:21.668Z,98515.80
2023-04-16T02:06:58.262Z,98515.00
2023-04-16T02:09:35.538Z,98517.40
2023-04-16T02:12:14.408Z,98518.20
2023-04-16T02:14:55.905Z,98523.20
2023-04-16T02:17:34.862Z,98528.40
2023-04-16T02:20:20.097Z,98532.80
2023-04-16T02:23:05.493Z,98528.80
2023-04-16T02:25:48.273Z,98539.00
2023-04-16T02:28:24.867Z,98531.60
2023-04-16T02:31:01.222Z,98531.00
2023-04-16T02:33:38.507Z,98534.40
2023-04-16T02:36:15.617Z,98535.20
2023-04-16T02:38:51.893Z,98541.20
2023-04-16T02:41:28.683Z,98548.60
2023-04-16T02:44:07.580Z,98551.00
2023-04-16T02:46:44.858Z,98547.60
2023-04-16T02:49:21.220Z,98558.80
2023-04-16T02:51:58.252Z,98562.60
2023-04-16T02:54:34.685Z,98567.60
2023-04-16T02:57:11.189Z,98570.80
2023-04-16T02:59:47.581Z,98572.60
2023-04-16T03:02:27.586Z,98576.20
2023-04-16T03:05:04.229Z,98574.20
2023-04-16T03:07:41.006Z,98575.60
2023-04-16T03:10:17.932Z,98580.00
2023-04-16T03:12:54.302Z,98580.00
2023-04-16T03:15:31.171Z,98580.60
2023-04-16T03:18:07.695Z,98586.40
2023-04-16T03:20:43.934Z,98586.40
2023-04-16T03:23:21.548Z,98590.00
2023-04-16T03:25:58.019Z,98600.00
2023-04-16T03:28:34.488Z,98602.20
2023-04-16T03:31:11.392Z,98608.00
2023-04-16T03:33:48.447Z,98609.60
2023-04-16T03:36:25.503Z,98616.00
2023-04-16T03:39:01.805Z,98619.80
2023-04-16T03:41:38.797Z,98622.60
2023-04-16T03:44:15.759Z,98625.80
2023-04-16T03:46:52.210Z,98628.40
2023-04-16T03:49:28.959Z,98632.80
2023-04-16T03:52:06.598Z,98632.40
2023-04-16T03:54:42.981Z,98638.20
2023-04-16T03:57:30.950Z,98645.00
2023-04-16T04:00:14.700Z,98647.40
2023-04-16T04:02:50.991Z,98646.80
2023-04-16T04:05:28.551Z,98651.00
2023-04-16T04:08:05.364Z,98651.20
2023-04-16T04:10:42.345Z,98651.00
2023-04-16T04:13:20.793Z,98652.00
2023-04-16T04:15:58.077Z,98653.00
2023-04-16T04:18:36.360Z,98654.20
2023-04-16T04:21:14.283Z,98655.40
2023-04-16T04:23:50.626Z,98661.40
2023-04-16T04:26:26.920Z,98668.80
2023-04-16T04:29:03.380Z,98680.80
2023-04-16T04:31:39.942Z,98683.40
2023-04-16T04:34:17.422Z,98688.20
2023-04-16T04:36:54.028Z,98692.40
2023-04-16T04:39:30.698Z,98693.40
2023-04-16T04:42:07.431Z,98697.20
2023-04-16T04:44:44.207Z,98697.00
2023-04-16T04:47:20.775Z,98702.20
2023-04-16T04:49:57.247Z,98700.20
2023-04-16T04:52:38.310Z,98700.00
2023-04-16T04:55:18.678Z,98698.00
2023-04-16T04:57:55.044Z,98698.20
2023-04-16T05:00:31.291Z,98701.20
2023-04-16T05:03:20.258Z,98701.00
2023-04-16T05:06:00.003Z,98712.60
2023-04-16T05:08:36.398Z,98720.80
2023-04-16T05:11:13.640Z,98724.80
2023-04-16T05:13:49.926Z,98732.00
2023-04-16T05:16:26.315Z,98738.60
2023-04-16T05:19:02.848Z,98743.80
2023-04-16T05:21:39.893Z,98745.40
2023-04-16T05:24:16.175Z,98750.20
2023-04-16T05:26:53.703Z,98755.00
2023-04-16T05:29:30.579Z,98757.00
2023-04-16T05:32:07.110Z,98760.20
2023-04-16T05:34:43.412Z,98761.60
2023-04-16T05:37:19.786Z,98763.20
2023-04-16T05:39:56.145Z,98765.00
2023-04-16T05:42:32.447Z,98764.20
2023-04-16T05:45:12.993Z,98763.60
2023-04-16T05:47:50.449Z,98765.80
2023-04-16T05:50:26.616Z,98761.40
2023-04-16T05:53:03.552Z,98766.20
2023-04-16T05:55:39.959Z,98773.40
2023-04-16T05:58:16.430Z,98773.40
2023-04-16T06:00:52.797Z,98777.60
2023-04-16T06:03:29.458Z,98778.40
2023-04-16T06:06:05.971Z,98779.40
2023-04-16T06:08:42.303Z,98791.40
2023-04-16T06:11:18.868Z,98789.40
2023-04-16T06:13:59.752Z,98791.20
2023-04-16T06:16:36.313Z,98793.20
2023-04-16T06:19:12.892Z,98796.20
2023-04-16T06:21:49.157Z,98793.60
2023-04-16T06:24:25.804Z,98794.40
2023-04-16T06:27:02.902Z,98799.20
2023-04-16T06:29:41.446Z,98803.60
2023-04-16T06:32:18.657Z,98813.00
2023-04-16T06:34:56.457Z,98819.00
2023-04-16T06:37:32.881Z,98821.00
2023-04-16T06:40:13.322Z,98824.60
2023-04-16T06:42:50.023Z,98824.80
2023-04-16T06:45:26.414Z,98829.40
2023-04-16T06:48:03.799Z,98826.80
2023-04-16T06:50:40.549Z,98827.80
2023-04-16T06:53:16.884Z,98831.20
2023-04-16T06:55:54.589Z,98831.80
2023-04-16T06:58:30.976Z,98831.00
2023-04-16T07:01:07.786Z,98836.40
2023-04-16T07:03:44.802Z,98836.80
2023-04-16T07:06:21.627Z,98844.60
2023-04-16T07:08:57.965Z,98843.00
2023-04-16T07:11:36.721Z,98844.40
2023-04-16T07:14:13.578Z,98843.00
2023-04-16T07:16:49.985Z,98838.40
2023-04-16T07:19:30.621Z,98842.00
2023-04-16T07:22:07.574Z,98846.40
2023-04-16T07:24:43.838Z,98856.80
2023-04-16T07:27:20.189Z,98858.60
2023-04-16T07:29:56.773Z,98860.20
2023-04-16T07:32:33.404Z,98866.60
2023-04-16T07:35:11.670Z,98872.00
2023-04-16T07:37:49.145Z,98871.60
2023-04-16T07:40:26.431Z,98871.20
2023-04-16T07:43:02.824Z,98876.40
2023-04-16T07:45:40.952Z,98877.00
2023-04-16T07:48:17.963Z,98880.60
2023-04-16T07:50:54.438Z,98884.60
2023-04-16T07:53:30.806Z,98891.80
2023-04-16T07:56:08.362Z,98892.40
2023-04-16T07:58:44.828Z,98897.60
2023-04-16T08:01:21.662Z,98899.00
2023-04-16T08:03:58.712Z,98905.00
2023-04-16T08:06:35.615Z,98905.80
2023-04-16T08:09:12.632Z,98904.80
2023-04-16T08:11:50.107Z,98904.40
2023-04-16T08:14:26.682Z,98909.60
2023-04-16T08:17:02.849Z,98906.60
2023-04-16T08:19:39.324Z,98912.60
2023-04-16T08:22:18.006Z,98913.40
2023-04-16T08:24:54.590Z,98912.80
2023-04-16T08:27:31.118Z,98913.60
2023-04-16T08:30:09.569Z,98911.20
2023-04-16T08:32:47.966Z,98910.60
2023-04-16T08:35:28.280Z,98914.40
2023-04-16T08:38:07.581Z,98910.40
2023-04-16T08:40:45.151Z,98913.20
2023-04-16T08:43:25.278Z,98913.40
2023-04-16T08:46:02.366Z,98920.40
2023-04-16T08:48:39.958Z,98917.60
2023-04-16T08:51:20.826Z,98917.40
2023-04-16T08:54:05.101Z,98920.00
2023-04-16T08:56:44.558Z,98923.60
2023-04-16T08:59:21.555Z,98923.20
2023-04-16T09:02:01.467Z,98925.00
2023-04-16T09:04:39.668Z,98923.20
2023-04-16T09:07:18.189Z,98920.40
2023-04-16T09:09:57.058Z,98918.80
2023-04-16T09:12:35.601Z,98917.80
2023-04-16T09:15:15.125Z,98920.60
2023-04-16T09:17:51.863Z,98917.00
2023-04-16T09:20:28.661Z,98923.60
2023-04-16T09:23:05.091Z,98918.00
2023-04-16T09:25:42.957Z,98916.80
2023-04-16T09:28:47.133Z,98918.40
2023-04-16T09:31:24.396Z,98917.60
2023-04-16T09:34:12.393Z,98920.00
2023-04-16T09:36:48.726Z,98920.40
2023-04-16T09:39:27.965Z,98924.00
2023-04-16T09:42:08.224Z,98922.20
2023-04-16T09:44:44.937Z,98923.60
2023-04-16T09:47:22.811Z,98923.20
2023-04-16T09:50:03.440Z,98925.00
2023-04-16T09:52:44.729Z,98920.80
2023-04-16T09:55:28.291Z,98918.80
2023-04-16T09:58:07.946Z,98928.80
2023-04-16T10:00:45.797Z,98929.40
2023-04-16T10:03:30.229Z,98931.80
2023-04-16T10:06:18.222Z,98931.80
2023-04-16T10:08:57.435Z,98927.60
2023-04-16T10:11:34.443Z,98927.60
2023-04-16T10:14:10.804Z,98922.60
2023-04-16T10:16:47.688Z,98923.80
2023-04-16T10:19:26.180Z,98924.80
2023-04-16T10:22:02.835Z,98919.20
2023-04-16T10:24:40.365Z,98919.20
2023-04-16T10:27:24.041Z,98920.40
2023-04-16T10:30:01.007Z,98924.60
2023-04-16T10:32:39.429Z,98921.00
2023-04-16T10:35:22.146Z,98928.00
2023-04-16T10:38:26.081Z,98926.40
2023-04-16T10:41:07.971Z,98925.00
2023-04-16T10:43:51.392Z,98926.00
2023-04-16T10:46:34.630Z,98925.20
2023-04-16T10:49:24.446Z,98927.40
2023-04-16T10:52:17.506Z,98925.80
2023-04-16T10:54:56.637Z,98923.20
2023-04-16T10:57:37.634Z,98927.60
2023-04-16T11:00:29.454Z,98924.00
2023-04-16T11:03:05.918Z,98925.80
2023-04-16T11:05:52.311Z,98927.60
2023-04-16T11:08:28.696Z,98930.80
2023-04-16T11:11:07.967Z,98932.20
2023-04-16T11:13:47.629Z,98932.00
2023-04-16T11:16:25.810Z,98928.80
2023-04-16T11:19:02.217Z,98933.20
2023-04-16T11:21:38.967Z,98936.00
2023-04-16T11:24:16.785Z,98937.40
2023-04-16T11:26:55.765Z,98939.20
2023-04-16T11:29:32.314Z,98934.20
2023-04-16T11:32:09.364Z,98943.00
2023-04-16T11:35:04.879Z,98941.60
2023-04-16T11:37:43.691Z,98946.80
2023-04-16T11:40:20.635Z,98945.00
2023-04-16T11:42:59.289Z,98944.00
2023-04-16T11:45:36.601Z,98942.40
2023-04-16T11:48:13.218Z,98941.20
2023-04-16T11:51:00.225Z,98940.80
2023-04-16T11:53:37.766Z,98944.40
2023-04-16T11:56:14.163Z,98942.40
2023-04-16T11:59:11.776Z,98939.40
2023-04-16T12:01:51.855Z,98940.80
2023-04-16T12:04:30.511Z,98941.00
2023-04-16T12:07:15.693Z,98940.20
2023-04-16T12:09:52.118Z,98939.00
2023-04-16T12:12:35.836Z,98938.80
2023-04-16T12:15:14.054Z,98939.60
2023-04-16T12:17:51.556Z,98939.80
2023-04-16T12:20:27.980Z,98939.20
2023-04-16T12:23:04.266Z,98940.80
2023-04-16T12:25:44.072Z,98935.40
2023-04-16T12:28:33.118Z,98927.80
2023-04-16T12:31:10.852Z,98929.80
2023-04-16T12:34:02.303Z,98928.20
2023-04-16T12:36:39.053Z,98928.40
2023-04-16T12:39:17.429Z,98922.60
2023-04-16T12:41:53.993Z,98921.60
2023-04-16T12:44:30.846Z,98920.00
2023-04-16T12:47:07.603Z,98920.00
2023-04-16T12:49:45.820Z,98917.20
2023-04-16T12:52:23.734Z,98913.80
2023-04-16T12:55:04.729Z,98916.00
2023-04-16T12:57:41.108Z,98916.80
2023-04-16T13:00:20.649Z,98912.40
2023-04-16T13:02:57.027Z,98912.80
2023-04-16T13:05:34.041Z,98913.60
2023-04-16T13:08:11.175Z,98916.20
2023-04-16T13:10:47.474Z,98917.20
2023-04-16T13:13:23.833Z,98921.00
2023-04-16T13:16:06.684Z,98909.60
2023-04-16T13:18:43.153Z,98909.20
2023-04-16T13:21:19.691Z,98907.20
2023-04-16T13:23:57.284Z,98909.40
2023-04-16T13:26:33.647Z,98912.00
2023-04-16T13:29:10.375Z,98909.20
2023-04-16T13:31:47.782Z,98907.00
2023-04-16T13:34:24.390Z,98907.20
2023-04-16T13:37:00.952Z,98910.60
2023-04-16T13:39:37.913Z,98912.00
2023-04-16T13:42:14.198Z,98915.00
2023-04-16T13:44:53.274Z,98910.60
2023-04-16T17:18:32.657Z,98966.40
2023-04-16T17:21:15.849Z,98972.60
2023-04-16T17:23:52.959Z,98975.20
2023-04-16T17:26:29.333Z,98975.80
2023-04-16T17:29:05.935Z,98976.40
2023-04-16T17:31:42.813Z,98977.00
2023-04-16T17:34:19.679Z,98979.80
2023-04-16T17:36:56.020Z,98981.80
2023-04-16T17:39:32.727Z,98982.80
2023-04-16T17:42:09.646Z,98987.40
2023-04-16T17:44:46.138Z,98984.20
2023-04-16T17:47:22.751Z,98986.20
2023-04-16T17:50:00.617Z,98991.40
2023-04-16T17:52:37.806Z,98991.20
2023-04-16T17:55:15.519Z,98987.40
2023-04-16T17:57:51.857Z,98994.00
2023-04-16T18:00:28.541Z,98996.00
2023-04-16T18:03:05.188Z,98996.40
2023-04-16T18:05:42.710Z,98995.60
2023-04-16T18:08:19.368Z,98993.80
2023-04-16T18:10:56.882Z,98996.20
2023-04-16T18:13:33.234Z,99001.20
2023-04-16T18:16:17.532Z,98998.80
2023-04-16T18:18:53.911Z,99003.20
2023-04-16T18:21:31.729Z,99002.20
2023-04-16T18:24:11.586Z,99001.40
2023-04-16T18:26:48.464Z,99005.00
2023-04-16T18:29:25.480Z,99007.00
2023-04-16T18:32:04.422Z,99010.40
2023-04-16T18:34:41.742Z,99014.20
2023-04-16T18:37:18.638Z,99017.60
2023-04-16T18:39:57.786Z,99012.60
2023-04-16T18:42:34.611Z,99014.80
2023-04-16T18:45:19.598Z,99017.60
2023-04-16T18:47:59.025Z,99020.40
2023-04-16T18:50:38.061Z,99020.40
2023-04-16T18:53:15.433Z,99018.20
2023-04-16T18:55:55.616Z,99017.20
2023-04-16T18:58:32.491Z,99017.80
2023-04-16T19:01:13.666Z,99018.60
2023-04-16T19:03:51.426Z,99018.60
2023-04-16T19:06:29.355Z,99018.40
2023-04-16T19:09:06.336Z,99025.60
2023-04-16T19:11:43.251Z,99018.60
2023-04-16T19:14:20.842Z,99017.00
2023-04-16T19:16:57.689Z,99019.00
2023-04-16T19:19:35.710Z,99020.40
2023-04-16T19:22:14.009Z,99019.60
2023-04-16T19:24:50.795Z,99020.00
2023-04-16T19:27:29.825Z,99014.80
2023-04-16T19:30:07.914Z,99017.20
2023-04-16T19:32:44.327Z,99018.60
2023-04-16T19:35:21.340Z,99017.20
2023-04-16T19:38:01.886Z,99017.60
2023-04-16T19:40:38.600Z,99015.80
2023-04-16T19:43:15.161Z,99013.20
2023-04-16T19:45:53.813Z,99014.60
2023-04-16T19:48:31.946Z,99016.60
2023-04-16T19:51:09.072Z,99012.60
2023-04-16T19:53:45.647Z,99008.80
2023-04-16T19:56:22.107Z,99005.80
2023-04-16T19:59:02.172Z,99009.20
2023-04-16T20:01:38.727Z,99008.00
2023-04-16T20:04:15.184Z,99002.60
2023-04-16T20:06:51.769Z,98999.20
2023-04-16T20:09:30.058Z,99000.60
2023-04-16T20:12:07.705Z,98999.00
2023-04-16T20:14:44.151Z,98998.20
2023-04-16T20:17:20.559Z,99000.40
2023-04-16T20:20:00.901Z,98999.80
2023-04-16T20:22:37.303Z,99006.20
2023-04-16T20:25:19.073Z,99001.00
2023-04-16T20:27:54.158Z,99002.60
2023-04-16T20:30:31.162Z,98999.60
2023-04-16T20:33:07.670Z,98999.60
2023-04-16T20:35:44.181Z,98999.60
2023-04-16T20:38:24.036Z,98996.80
2023-04-16T20:41:12.494Z,99001.60
2023-04-16T20:43:50.350Z,98997.60
2023-04-16T20:46:30.278Z,98992.40
2023-04-16T20:49:08.394Z,98987.20
2023-04-16T20:51:44.892Z,98988.60
2023-04-16T20:54:21.756Z,98983.60
2023-04-16T20:56:58.335Z,98983.60
2023-04-16T20:59:34.703Z,98983.80
2023-04-16T21:02:11.330Z,98981.80
2023-04-16T21:04:48.151Z,98982.40
2023-04-16T21:07:24.496Z,98983.40
2023-04-16T21:10:00.793Z,98983.00
2023-04-16T21:12:37.757Z,98986.20
2023-04-16T21:15:16.057Z,98987.40
2023-04-16T21:17:52.337Z,98985.60
2023-04-16T21:20:30.797Z,98984.60
2023-04-16T21:23:07.728Z,98983.20
2023-04-16T21:25:43.991Z,98979.80
2023-04-16T21:28:20.541Z,98980.20
2023-04-16T21:30:58.382Z,98977.80
2023-04-16T21:33:34.985Z,98978.40
2023-04-16T21:36:13.799Z,98975.20
2023-04-16T21:38:50.112Z,98980.00
2023-04-16T21:41:26.632Z,98979.40
2023-04-16T21:44:03.074Z,98982.20
2023-04-16T21:46:39.436Z,98975.80
2023-04-16T21:49:17.659Z,98979.80
2023-04-16T21:51:59.298Z,98977.60
2023-04-16T21:54:35.681Z,98977.80
2023-04-16T21:57:12.353Z,98977.00
2023-04-16T21:59:48.556Z,98976.20
2023-04-16T22:02:24.891Z,98972.80
2023-04-16T22:05:01.975Z,98975.80
2023-04-16T22:07:39.185Z,98982.40
2023-04-16T22:10:16.726Z,98979.00
2023-04-16T22:12:53.928Z,98979.40
2023-04-16T22:15:31.876Z,98982.40
2023-04-16T22:18:09.747Z,98979.40
2023-04-16T22:20:47.390Z,98985.60
2023-04-16T22:23:24.101Z,98997.20
2023-04-16T22:26:02.693Z,98990.40
2023-04-16T22:28:39.085Z,98983.60
2023-04-16T22:31:15.550Z,98988.80
2023-04-16T22:33:52.017Z,98989.00
2023-04-16T22:36:28.490Z,98992.40
2023-04-16T22:39:08.640Z,98994.40
2023-04-16T22:41:45.612Z,98999.60
2023-04-16T22:44:24.205Z,98992.40
2023-04-16T22:47:01.904Z,98991.60
2023-04-16T22:49:38.955Z,98996.60
2023-04-16T22:52:15.168Z,98992.20
2023-04-16T22:54:51.489Z,98991.20
2023-04-16T22:57:28.017Z,98989.40
2023-04-16T23:00:06.589Z,98990.20
2023-04-16T23:02:43.177Z,98987.20
2023-04-16T23:05:19.953Z,98982.00
2023-04-16T23:07:59.092Z,98980.00
2023-04-16T23:10:35.678Z,98979.20
2023-04-16T23:13:12.059Z,98983.20
2023-04-16T23:15:48.571Z,98983.00
2023-04-16T23:18:24.982Z,98984.80
2023-04-16T23:21:01.459Z,98982.20
2023-04-16T23:23:42.470Z,98983.00
2023-04-16T23:26:18.752Z,98984.80
2023-04-16T23:28:55.046Z,98985.80
2023-04-16T23:31:31.383Z,98981.80
2023-04-16T23:34:07.811Z,98982.20
2023-04-16T23:36:44.349Z,98978.60
2023-04-16T23:39:20.803Z,98979.40
2023-04-16T23:41:57.388Z,98979.20
2023-04-16T23:44:34.877Z,98981.80
2023-04-16T23:47:11.302Z,98989.00
2023-04-16T23:49:47.623Z,98987.60
2023-04-16T23:52:24.089Z,98991.20
2023-04-16T23:55:00.553Z,98992.20
2023-04-16T23:57:36.798Z,98990.40
